createdAt,value
2019-04-25T00:01:44.883Z,1.50
2019-04-25T00:04:16.728Z,1.67
2019-04-25T00:06:47.835Z,1.43
2019-04-25T00:09:21.884Z,1.70
2019-04-25T00:11:53.051Z,1.57
2019-04-25T00:14:24.567Z,1.70
2019-04-25T00:16:55.481Z,1.40
2019-04-25T00:19:26.777Z,1.53
2019-04-25T00:22:23.495Z,1.93
2019-04-25T00:25:14.297Z,1.67
2019-04-25T00:27:35.687Z,2.10
2019-04-25T00:30:06.951Z,2.33
2019-04-25T00:32:37.963Z,2.10
2019-04-25T00:35:11.721Z,1.60
2019-04-25T00:37:44.305Z,1.70
2019-04-25T00:40:15.859Z,1.77
2019-04-25T00:42:47.195Z,2.13
2019-04-25T00:45:19.204Z,2.00
2019-04-25T00:47:51.533Z,2.07
2019-04-25T00:50:23.042Z,2.10
2019-04-25T00:52:54.016Z,2.03
2019-04-25T00:55:28.528Z,1.93
2019-04-25T00:58:05.598Z,2.07
2019-04-25T01:01:02.016Z,1.90
2019-04-25T01:03:34.028Z,1.77
2019-04-25T01:06:05.054Z,1.83
2019-04-25T01:08:36.006Z,1.97
2019-04-25T01:11:07.262Z,2.10
2019-04-25T01:13:38.594Z,2.13
2019-04-25T01:16:09.726Z,1.97
2019-04-25T01:18:40.705Z,2.10
2019-04-25T01:21:11.712Z,1.90
2019-04-25T01:23:43.488Z,1.93
2019-04-25T01:26:14.886Z,1.80
2019-04-25T01:28:46.182Z,2.10
2019-04-25T01:31:20.480Z,1.90
2019-04-25T01:33:54.284Z,1.90
2019-04-25T01:36:42.320Z,2.40
2019-04-25T01:39:35.105Z,2.00
2019-04-25T01:42:28.290Z,1.80
2019-04-25T01:44:59.280Z,1.80
2019-04-25T01:47:30.260Z,2.03
2019-04-25T01:50:01.280Z,2.23
2019-04-25T01:52:33.423Z,1.83
2019-04-25T01:55:05.606Z,2.10
2019-04-25T01:57:36.681Z,1.90
2019-04-25T02:00:10.037Z,2.03
2019-04-25T02:02:43.495Z,1.97
2019-04-25T02:05:15.911Z,2.00
2019-04-25T02:07:46.951Z,2.03
2019-04-25T02:10:18.313Z,1.77
2019-04-25T02:12:55.590Z,1.93
2019-04-25T02:15:31.205Z,1.97
2019-04-25T02:18:03.800Z,1.90
2019-04-25T02:20:35.262Z,2.10
2019-04-25T02:23:06.227Z,2.00
2019-04-25T02:25:37.235Z,1.63
2019-04-25T02:28:08.189Z,2.07
2019-04-25T02:30:39.516Z,1.70
2019-04-25T02:33:10.607Z,1.87
2019-04-25T02:35:43.983Z,1.57
2019-04-25T02:38:16.769Z,1.70
2019-04-25T02:40:46.907Z,1.83
2019-04-25T02:43:18.263Z,1.70
2019-04-25T02:46:21.821Z,1.83
2019-04-25T02:49:28.868Z,1.40
2019-04-25T02:51:57.842Z,1.50
2019-04-25T02:54:28.650Z,1.40
2019-04-25T02:56:59.982Z,1.60
2019-04-25T02:59:31.425Z,1.93
2019-04-25T03:02:05.740Z,1.90
2019-04-25T03:04:37.229Z,1.70
2019-04-25T03:07:11.309Z,1.37
2019-04-25T03:09:40.947Z,1.80
2019-04-25T03:12:26.927Z,2.10
2019-04-25T03:14:45.003Z,1.70
2019-04-25T03:17:16.381Z,1.70
2019-04-25T03:20:18.441Z,1.40
2019-04-25T03:22:50.027Z,1.57
2019-04-25T03:25:24.634Z,1.80
2019-04-25T03:27:55.322Z,1.30
2019-04-25T03:30:26.733Z,1.40
2019-04-25T03:32:57.828Z,1.80
2019-04-25T03:35:29.112Z,1.63
2019-04-25T03:38:00.449Z,1.40
2019-04-25T03:40:33.973Z,2.60
2019-04-25T03:43:05.991Z,1.40
2019-04-25T03:45:37.461Z,1.67
2019-04-25T03:48:09.541Z,1.60
2019-04-25T03:50:40.884Z,1.33
2019-04-25T03:53:12.130Z,1.57
2019-04-25T03:55:44.625Z,1.33
2019-04-25T03:58:15.550Z,2.40
2019-04-25T04:00:46.506Z,1.50
2019-04-25T04:03:17.836Z,1.77
2019-04-25T04:05:48.974Z,1.67
2019-04-25T04:08:19.987Z,1.50
2019-04-25T04:10:51.028Z,1.70
2019-04-25T04:13:24.403Z,1.60
2019-04-25T04:16:00.301Z,1.50
2019-04-25T04:18:37.310Z,2.23
2019-04-25T04:21:29.377Z,1.50
2019-04-25T04:24:10.193Z,1.67
2019-04-25T04:26:43.039Z,1.53
2019-04-25T04:29:15.313Z,1.70
2019-04-25T04:31:46.633Z,1.40
2019-04-25T04:34:20.799Z,1.50
2019-04-25T04:36:51.853Z,1.70
2019-04-25T04:39:23.593Z,2.07
2019-04-25T04:41:56.523Z,1.37
2019-04-25T04:44:27.527Z,1.70
2019-04-25T04:46:58.485Z,1.53
2019-04-25T04:49:29.534Z,2.23
2019-04-25T04:52:00.752Z,1.90
2019-04-25T04:54:34.986Z,1.70
2019-04-25T04:57:18.621Z,1.80
2019-04-25T04:59:38.747Z,1.80
2019-04-25T05:02:33.282Z,1.63
2019-04-25T05:05:39.111Z,1.77
2019-04-25T05:08:14.966Z,1.33
2019-04-25T05:10:45.910Z,1.23
2019-04-25T05:13:17.921Z,1.40
2019-04-25T05:15:48.984Z,1.70
2019-04-25T05:18:32.939Z,1.80
2019-04-25T05:20:54.299Z,1.60
2019-04-25T05:23:25.459Z,1.70
2019-04-25T05:25:56.831Z,1.30
2019-04-25T05:28:27.833Z,1.40
2019-04-25T05:31:34.242Z,1.50
2019-04-25T05:34:06.374Z,1.60
2019-04-25T05:36:37.836Z,1.80
2019-04-25T05:39:09.877Z,1.40
2019-04-25T05:41:50.626Z,1.43
2019-04-25T05:44:21.724Z,1.60
2019-04-25T05:46:54.077Z,1.80
2019-04-25T05:49:26.099Z,1.70
2019-04-25T05:51:57.442Z,2.07
2019-04-25T05:54:28.384Z,2.00
2019-04-25T05:56:59.752Z,1.53
2019-04-25T05:59:31.214Z,1.50
2019-04-25T06:02:03.832Z,1.60
2019-04-25T06:04:35.638Z,1.50
2019-04-25T06:07:06.662Z,1.53
2019-04-25T06:09:56.732Z,1.60
2019-04-25T06:12:46.700Z,1.50
2019-04-25T06:15:20.052Z,1.90
2019-04-25T06:18:28.666Z,1.50
2019-04-25T06:20:59.866Z,1.80
2019-04-25T06:24:05.090Z,1.83
2019-04-25T06:26:43.352Z,1.47
2019-04-25T06:29:15.348Z,1.40
2019-04-25T06:31:46.379Z,1.70
2019-04-25T06:34:17.373Z,2.40
2019-04-25T06:36:48.463Z,1.73
2019-04-25T06:39:20.371Z,1.60
2019-04-25T06:41:51.539Z,1.60
2019-04-25T06:44:37.173Z,1.60
2019-04-25T06:47:22.510Z,1.70
2019-04-25T06:49:53.957Z,1.50
2019-04-25T06:52:29.067Z,1.50
2019-04-25T06:54:57.593Z,1.60
2019-04-25T06:57:30.236Z,1.43
2019-04-25T07:00:01.509Z,1.87
2019-04-25T07:02:35.145Z,1.53
2019-04-25T07:05:06.937Z,1.30
2019-04-25T07:07:38.523Z,1.40
2019-04-25T07:10:09.848Z,1.77
2019-04-25T07:12:41.204Z,1.63
2019-04-25T07:15:13.767Z,1.60
2019-04-25T07:17:45.721Z,1.67
2019-04-25T07:20:17.831Z,1.50
2019-04-25T07:22:49.257Z,1.70
2019-04-25T07:25:21.324Z,1.40
2019-04-25T07:28:23.310Z,1.20
2019-04-25T07:31:00.614Z,1.37
2019-04-25T07:33:37.621Z,1.30
2019-04-25T07:36:09.096Z,1.40
2019-04-25T07:38:40.508Z,1.40
2019-04-25T07:41:14.637Z,1.40
2019-04-25T07:43:45.407Z,1.80
2019-04-25T07:46:16.486Z,1.20
2019-04-25T07:48:47.540Z,1.40
2019-04-25T07:51:18.563Z,1.10
2019-04-25T07:53:49.984Z,1.50
2019-04-25T07:56:20.936Z,1.67
2019-04-25T07:58:53.214Z,1.50
2019-04-25T08:01:25.442Z,1.33
2019-04-25T08:03:56.912Z,1.20
2019-04-25T08:06:27.836Z,1.20
2019-04-25T08:09:00.236Z,1.20
2019-04-25T08:11:31.992Z,1.40
2019-04-25T08:14:10.166Z,1.60
2019-04-25T08:16:44.267Z,1.73
2019-04-25T08:19:15.659Z,1.30
2019-04-25T08:21:46.982Z,1.43
2019-04-25T08:24:18.563Z,1.33
2019-04-25T08:26:49.448Z,1.50
2019-04-25T08:29:22.882Z,1.50
2019-04-25T08:31:53.555Z,1.20
2019-04-25T08:34:25.108Z,1.23
2019-04-25T08:36:56.079Z,1.20
2019-04-25T08:39:27.878Z,1.07
2019-04-25T08:41:59.340Z,1.30
2019-04-25T08:44:31.601Z,1.40
2019-04-25T08:47:04.489Z,1.10
2019-04-25T08:49:42.918Z,1.53
2019-04-25T08:52:14.424Z,1.20
2019-04-25T08:54:57.472Z,1.33
2019-04-25T08:57:46.073Z,1.33
2019-04-25T09:00:31.691Z,1.20
2019-04-25T09:03:06.578Z,1.20
2019-04-25T09:05:45.852Z,1.50
2019-04-25T09:08:16.152Z,1.10
2019-04-25T09:10:47.457Z,1.07
2019-04-25T09:13:18.423Z,1.53
2019-04-25T09:15:49.773Z,1.17
2019-04-25T09:18:20.785Z,1.33
2019-04-25T09:20:51.787Z,1.23
2019-04-25T09:23:23.655Z,1.77
2019-04-25T09:25:55.733Z,1.40
2019-04-25T09:28:26.743Z,1.40
2019-04-25T09:30:57.825Z,1.30
2019-04-25T09:33:28.833Z,1.40
2019-04-25T09:35:59.750Z,1.30
2019-04-25T09:38:30.650Z,1.30
2019-04-25T09:41:01.593Z,1.50
2019-04-25T09:43:33.505Z,1.30
2019-04-25T09:46:25.213Z,1.20
2019-04-25T09:49:21.233Z,1.47
2019-04-25T09:52:17.210Z,1.63
2019-04-25T09:55:07.179Z,1.30
2019-04-25T09:58:04.108Z,1.67
2019-04-25T10:00:38.186Z,1.40
2019-04-25T10:03:09.624Z,1.20
2019-04-25T10:05:41.274Z,1.50
2019-04-25T10:08:13.459Z,1.32
2019-04-25T10:10:56.605Z,1.40
2019-04-25T10:13:27.716Z,1.27
2019-04-25T10:16:08.795Z,1.30
2019-04-25T10:18:39.811Z,1.12
2019-04-25T10:21:14.150Z,1.17
2019-04-25T10:23:46.730Z,1.20
2019-04-25T10:26:21.590Z,1.47
2019-04-25T10:28:53.722Z,1.63
2019-04-25T10:31:24.738Z,1.03
2019-04-25T10:33:56.354Z,1.20
2019-04-25T10:36:27.587Z,1.00
2019-04-25T10:39:06.849Z,1.32
2019-04-25T10:41:33.668Z,1.60
2019-04-25T10:44:06.081Z,1.10
2019-04-25T10:46:37.085Z,1.00
2019-04-25T10:49:08.315Z,1.30
2019-04-25T10:51:39.902Z,1.03
2019-04-25T10:54:14.416Z,1.00
2019-04-25T10:56:47.028Z,0.90
2019-04-25T10:59:18.481Z,1.30
2019-04-25T11:01:49.830Z,1.00
2019-04-25T11:04:27.198Z,1.20
2019-04-25T11:06:58.165Z,1.40
2019-04-25T11:09:29.902Z,1.00
2019-04-25T11:12:00.869Z,1.10
2019-04-25T11:14:34.029Z,0.83
2019-04-25T11:17:05.497Z,0.90
2019-04-25T11:19:37.353Z,1.13
2019-04-25T11:22:08.909Z,1.33
2019-04-25T11:24:39.948Z,1.10
2019-04-25T11:27:11.309Z,1.30
2019-04-25T11:29:44.713Z,1.10
2019-04-25T11:32:16.561Z,1.17
2019-04-25T11:34:47.570Z,1.10
2019-04-25T11:37:19.778Z,1.07
2019-04-25T11:39:58.745Z,1.13
2019-04-25T11:42:29.761Z,1.27
2019-04-25T11:45:01.198Z,1.40
2019-04-25T11:47:33.466Z,1.30
2019-04-25T11:50:05.259Z,1.60
2019-04-25T11:52:36.574Z,1.60
2019-04-25T11:55:08.084Z,1.50
2019-04-25T11:57:39.143Z,1.67
2019-04-25T12:00:21.577Z,1.50
2019-04-25T12:02:44.048Z,1.40
2019-04-25T12:05:15.680Z,1.10
2019-04-25T12:07:46.694Z,1.50
2019-04-25T12:10:20.214Z,1.83
2019-04-25T12:12:51.338Z,1.30
2019-04-25T12:15:23.962Z,1.30
2019-04-25T12:17:55.907Z,1.57
2019-04-25T12:20:27.442Z,1.47
2019-04-25T12:23:08.449Z,1.50
2019-04-25T12:25:31.076Z,1.40
2019-04-25T12:28:02.834Z,1.50
2019-04-25T12:30:38.076Z,1.60
2019-04-25T12:33:18.310Z,1.97
2019-04-25T12:35:40.797Z,1.53
2019-04-25T12:38:11.790Z,1.70
2019-04-25T12:40:43.480Z,1.87
2019-04-25T12:43:14.818Z,1.80
2019-04-25T12:46:04.883Z,2.00
2019-04-25T12:48:35.951Z,1.70
2019-04-25T12:51:07.177Z,1.43
2019-04-25T12:53:38.589Z,1.60
2019-04-25T12:56:09.610Z,1.27
2019-04-25T12:58:40.650Z,1.23
2019-04-25T13:01:11.901Z,1.07
2019-04-25T13:03:43.926Z,1.33
2019-04-25T13:06:15.819Z,1.10
2019-04-25T13:08:46.920Z,0.90
2019-04-25T13:11:18.417Z,1.07
2019-04-25T13:13:49.798Z,1.20
2019-04-25T13:16:20.781Z,1.10
2019-04-25T13:18:51.887Z,1.30
2019-04-25T13:21:23.635Z,0.97
2019-04-25T13:23:54.558Z,1.13
2019-04-25T13:26:29.051Z,1.17
2019-04-25T13:29:21.176Z,1.20
2019-04-25T13:32:19.777Z,1.10
2019-04-25T13:34:51.276Z,1.10
2019-04-25T13:37:24.194Z,0.90
2019-04-25T13:39:55.717Z,1.10
2019-04-25T13:42:26.799Z,1.17
2019-04-25T13:44:58.178Z,1.40
2019-04-25T13:47:30.310Z,1.10
2019-04-25T13:50:01.737Z,1.30
2019-04-25T13:52:35.804Z,1.40
2019-04-25T13:55:07.019Z,1.30
2019-04-25T13:57:38.096Z,1.20
2019-04-25T14:00:10.073Z,1.20
2019-04-25T14:02:41.092Z,1.13
2019-04-25T14:05:14.640Z,1.60
2019-04-25T14:07:45.862Z,1.10
2019-04-25T14:10:16.919Z,1.20
2019-04-25T14:12:48.237Z,1.30
2019-04-25T14:15:21.856Z,1.10
2019-04-25T14:18:21.873Z,1.00
2019-04-25T14:21:07.761Z,1.30
2019-04-25T14:23:39.199Z,1.30
2019-04-25T14:26:11.214Z,1.20
2019-04-25T14:28:44.159Z,1.10
2019-04-25T14:31:33.517Z,1.30
2019-04-25T14:33:52.263Z,1.10
2019-04-25T14:36:25.791Z,1.10
2019-04-25T14:38:56.302Z,0.97
2019-04-25T14:41:28.154Z,1.10
2019-04-25T14:44:00.368Z,1.00
2019-04-25T14:46:32.218Z,1.00
2019-04-25T14:49:04.655Z,1.50
2019-04-25T14:51:36.539Z,1.10
2019-04-25T14:54:12.979Z,1.13
2019-04-25T14:56:50.043Z,1.00
2019-04-25T14:59:23.040Z,1.00
2019-04-25T15:01:55.542Z,1.20
2019-04-25T15:04:26.573Z,1.20
2019-04-25T15:06:57.645Z,1.00
2019-04-25T15:09:30.210Z,1.20
2019-04-25T15:12:01.542Z,1.00
2019-04-25T15:14:33.541Z,0.80
2019-04-25T15:17:06.417Z,0.93
2019-04-25T15:19:37.493Z,0.80
2019-04-25T15:22:08.518Z,1.10
2019-04-25T15:24:39.459Z,1.00
2019-04-25T15:27:10.758Z,0.90
2019-04-25T15:29:42.433Z,0.90
2019-04-25T15:32:16.769Z,0.80
2019-04-25T15:34:52.813Z,0.80
2019-04-25T15:37:49.179Z,0.80
2019-04-25T15:40:54.743Z,0.80
2019-04-25T15:43:45.074Z,0.80
2019-04-25T15:46:27.296Z,0.70
2019-04-25T15:48:58.817Z,0.70
2019-04-25T15:51:29.943Z,0.67
2019-04-25T15:54:01.115Z,0.57
2019-04-25T15:56:32.626Z,0.50
2019-04-25T15:59:04.392Z,0.70
2019-04-25T16:01:35.490Z,0.40
2019-04-25T16:04:06.575Z,0.40
2019-04-25T16:06:37.568Z,0.60
2019-04-25T16:09:10.449Z,0.70
2019-04-25T16:11:42.878Z,0.80
2019-04-25T16:14:14.035Z,1.00
2019-04-25T16:16:44.954Z,1.00
2019-04-25T16:19:15.966Z,0.80
2019-04-25T16:21:47.330Z,0.83
2019-04-25T16:24:18.432Z,0.93
2019-04-25T16:26:49.567Z,0.70
2019-04-25T16:29:20.925Z,0.80
2019-04-25T16:31:52.129Z,0.90
2019-04-25T16:34:23.212Z,0.80
2019-04-25T16:36:54.532Z,0.80
2019-04-25T16:39:27.432Z,0.70
2019-04-25T16:41:58.760Z,0.83
2019-04-25T16:44:30.030Z,0.80
2019-04-25T16:47:01.262Z,0.80
2019-04-25T16:49:33.343Z,0.97
2019-04-25T16:52:08.387Z,1.03
2019-04-25T16:54:39.699Z,0.90
2019-04-25T16:57:10.941Z,1.00
2019-04-25T16:59:42.320Z,0.90
2019-04-25T17:02:13.331Z,0.90
2019-04-25T17:04:44.711Z,1.07
2019-04-25T17:07:16.210Z,1.00
2019-04-25T17:09:47.546Z,1.20
2019-04-25T17:12:19.769Z,0.90
2019-04-25T17:15:02.957Z,1.20
2019-04-25T17:17:46.341Z,1.20
2019-04-25T17:20:26.089Z,1.10
2019-04-25T17:22:57.513Z,1.00
2019-04-25T17:25:28.785Z,0.90
2019-04-25T17:28:00.209Z,0.90
2019-04-25T17:30:33.481Z,1.10
2019-04-25T17:33:22.204Z,1.00
2019-04-25T17:36:04.591Z,1.17
2019-04-25T17:38:38.417Z,1.00
2019-04-25T17:41:09.808Z,1.07
2019-04-25T17:43:41.801Z,1.40
2019-04-25T17:46:14.526Z,1.10
2019-04-25T17:48:56.844Z,1.00
2019-04-25T17:51:30.092Z,1.30
2019-04-25T17:54:00.486Z,1.00
2019-04-25T17:56:32.154Z,1.20
2019-04-25T17:59:04.358Z,1.10
2019-04-25T18:01:36.002Z,1.20
2019-04-25T18:04:07.448Z,1.00
2019-04-25T18:06:38.445Z,1.27
2019-04-25T18:09:09.503Z,1.03
2019-04-25T18:11:42.275Z,1.17
2019-04-25T18:14:14.830Z,1.17
2019-04-25T18:16:47.446Z,1.27
2019-04-25T18:19:34.039Z,0.80
2019-04-25T18:22:12.957Z,1.00
2019-04-25T18:25:03.663Z,1.10
2019-04-25T18:28:08.777Z,1.13
2019-04-25T18:30:41.161Z,0.90
2019-04-25T18:33:27.877Z,1.10
2019-04-25T18:36:21.376Z,1.20
2019-04-25T18:39:04.643Z,1.23
2019-04-25T18:42:01.736Z,1.10
2019-04-25T18:44:33.164Z,1.20
2019-04-25T18:47:12.635Z,1.13
2019-04-25T18:49:45.469Z,1.10
2019-04-25T18:52:37.182Z,1.20
2019-04-25T18:55:18.769Z,1.10
2019-04-25T18:58:01.097Z,1.20
2019-04-25T19:00:52.627Z,1.00
2019-04-25T19:03:45.979Z,1.07
2019-04-25T19:06:18.828Z,1.00
2019-04-25T19:08:52.532Z,1.10
2019-04-25T19:11:23.269Z,1.20
2019-04-25T19:13:54.400Z,1.00
2019-04-25T19:16:25.410Z,0.90
2019-04-25T19:18:56.453Z,1.10
2019-04-25T19:21:28.195Z,1.20
2019-04-25T19:23:59.333Z,0.83
2019-04-25T19:26:30.730Z,1.20
2019-04-25T19:29:02.147Z,1.40
2019-04-25T19:31:33.477Z,1.43
2019-04-25T19:34:04.942Z,1.20
2019-04-25T19:36:36.050Z,1.13
2019-04-25T19:39:08.225Z,1.50
2019-04-25T19:41:48.139Z,1.80
2019-04-25T19:44:22.344Z,1.17
2019-04-25T19:46:54.177Z,1.10
2019-04-25T19:49:25.253Z,1.47
2019-04-25T19:51:57.257Z,1.47
2019-04-25T19:54:28.276Z,1.90
2019-04-25T19:56:59.219Z,1.53
2019-04-25T19:59:30.181Z,1.20
2019-04-25T20:02:10.479Z,1.50
2019-04-25T20:04:51.475Z,1.50
2019-04-25T20:07:37.242Z,1.47
2019-04-25T20:10:27.502Z,1.40
2019-04-25T20:12:58.660Z,1.40
2019-04-25T20:15:29.758Z,1.47
2019-04-25T20:18:00.804Z,1.30
2019-04-25T20:20:32.411Z,1.50
2019-04-25T20:23:03.508Z,1.40
2019-04-25T20:25:34.802Z,1.60
2019-04-25T20:28:06.605Z,1.60
2019-04-25T20:30:37.982Z,1.40
2019-04-25T20:33:10.586Z,1.60
2019-04-25T20:35:41.627Z,1.50
2019-04-25T20:38:13.049Z,1.30
2019-04-25T20:40:45.180Z,1.30
2019-04-25T20:43:17.203Z,1.30
2019-04-25T20:45:48.333Z,1.50
2019-04-25T20:48:19.438Z,1.73
2019-04-25T20:50:52.383Z,1.80
2019-04-25T20:53:23.641Z,1.67
2019-04-25T20:55:55.031Z,1.60
2019-04-25T20:58:26.405Z,1.70
2019-04-25T21:01:09.501Z,1.63
2019-04-25T21:03:40.602Z,1.57
2019-04-25T21:06:17.539Z,1.83
2019-04-25T21:08:49.016Z,1.73
2019-04-25T21:11:20.996Z,2.00
2019-04-25T21:14:10.051Z,2.10
2019-04-25T21:16:53.865Z,2.23
2019-04-25T21:19:31.037Z,1.83
2019-04-25T21:22:03.401Z,2.20
2019-04-25T21:24:34.423Z,2.07
2019-04-25T21:27:05.891Z,2.40
2019-04-25T21:29:36.968Z,2.43
2019-04-25T21:32:07.913Z,2.13
2019-04-25T21:34:38.858Z,2.13
2019-04-25T21:37:10.309Z,1.73
2019-04-25T21:39:48.347Z,2.13
2019-04-25T21:42:32.613Z,1.77
2019-04-25T21:45:04.280Z,1.80
2019-04-25T21:47:37.019Z,1.67
2019-04-25T21:50:08.607Z,2.00
2019-04-25T21:52:40.107Z,1.70
2019-04-25T21:55:11.507Z,1.93
2019-04-25T21:57:42.910Z,2.30
2019-04-25T22:00:18.705Z,1.80
2019-04-25T22:02:51.409Z,1.87
2019-04-25T22:05:22.780Z,2.00
2019-04-25T22:07:54.427Z,2.37
2019-04-25T22:10:26.640Z,2.13
2019-04-25T22:13:05.506Z,2.30
2019-04-25T22:15:30.308Z,2.40
2019-04-25T22:18:02.261Z,2.30
2019-04-25T22:20:33.714Z,1.97
2019-04-25T22:23:04.903Z,2.30
2019-04-25T22:25:36.809Z,2.53
2019-04-25T22:28:09.636Z,2.17
2019-04-25T22:30:42.360Z,2.83
2019-04-25T22:33:38.723Z,2.30
2019-04-25T22:36:13.470Z,2.40
2019-04-25T22:38:44.799Z,2.50
2019-04-25T22:41:15.761Z,3.17
2019-04-25T22:43:52.159Z,2.77
2019-04-25T22:46:26.067Z,2.20
2019-04-25T22:48:57.584Z,2.50
2019-04-25T22:51:28.904Z,2.20
2019-04-25T22:54:01.003Z,2.47
2019-04-25T22:56:33.446Z,2.33
2019-04-25T22:59:04.919Z,3.10
2019-04-25T23:01:55.044Z,2.80
2019-04-25T23:04:43.938Z,2.53
2019-04-25T23:07:15.352Z,2.60
2019-04-25T23:09:46.441Z,2.60
2019-04-25T23:12:18.071Z,2.77
2019-04-25T23:14:49.049Z,2.90
2019-04-25T23:17:20.125Z,3.40
2019-04-25T23:19:51.958Z,2.90
2019-04-25T23:22:23.368Z,3.23
2019-04-25T23:24:59.792Z,2.70
2019-04-25T23:27:55.912Z,3.03
2019-04-25T23:30:32.843Z,3.67
2019-04-25T23:33:05.665Z,3.80
2019-04-25T23:35:39.338Z,3.53
2019-04-25T23:38:12.514Z,3.60
2019-04-25T23:40:43.453Z,3.70
2019-04-25T23:43:15.851Z,3.80
2019-04-25T23:45:46.934Z,3.37
2019-04-25T23:48:18.142Z,3.60
2019-04-25T23:50:49.601Z,3.90
2019-04-25T23:53:21.020Z,3.07
2019-04-25T23:55:52.123Z,3.70
2019-04-25T23:58:23.410Z,3.90
